createdAt,value
2024-02-28T00:00:54.264Z,2.92
2024-02-28T00:03:21.018Z,1.95
2024-02-28T00:05:47.708Z,2.10
2024-02-28T00:08:14.306Z,1.80
2024-02-28T00:10:40.778Z,1.23
2024-02-28T00:13:07.338Z,2.60
2024-02-28T00:15:34.223Z,2.50
2024-02-28T00:18:00.816Z,2.50
2024-02-28T00:20:28.434Z,3.00
2024-02-28T00:22:54.953Z,2.83
2024-02-28T00:25:21.477Z,2.33
2024-02-28T00:27:48.229Z,2.25
2024-02-28T00:30:14.849Z,2.88
2024-02-28T00:32:41.445Z,2.58
2024-02-28T00:35:08.426Z,1.63
2024-02-28T00:37:34.936Z,2.17
2024-02-28T00:40:01.509Z,1.75
2024-02-28T00:42:28.470Z,1.55
2024-02-28T00:44:55.215Z,2.65
2024-02-28T00:47:21.805Z,2.22
2024-02-28T00:49:48.403Z,2.10
2024-02-28T00:52:15.061Z,2.17
2024-02-28T00:54:42.762Z,2.78
2024-02-28T00:57:12.701Z,1.92
2024-02-28T00:59:39.329Z,2.67
2024-02-28T01:02:05.839Z,1.55
2024-02-28T01:04:32.489Z,2.55
2024-02-28T01:06:59.059Z,2.55
2024-02-28T01:09:25.796Z,2.35
2024-02-28T01:11:52.416Z,2.72
2024-02-28T01:14:18.968Z,1.70
2024-02-28T01:16:45.658Z,2.15
2024-02-28T01:19:12.293Z,2.22
2024-02-28T01:21:39.822Z,1.63
2024-02-28T01:24:06.454Z,2.58
2024-02-28T01:26:32.925Z,3.05
2024-02-28T01:28:59.636Z,2.95
2024-02-28T01:31:26.226Z,2.65
2024-02-28T01:33:52.986Z,2.13
2024-02-28T01:36:19.596Z,2.55
2024-02-28T01:38:46.078Z,2.80
2024-02-28T01:41:13.098Z,2.42
2024-02-28T01:43:39.654Z,2.15
2024-02-28T01:46:11.266Z,2.80
2024-02-28T01:48:37.955Z,1.53
2024-02-28T01:51:04.758Z,3.38
2024-02-28T01:53:31.387Z,2.88
2024-02-28T01:55:58.169Z,3.08
2024-02-28T01:58:24.832Z,2.30
2024-02-28T02:00:51.733Z,3.50
2024-02-28T02:03:18.322Z,3.30
2024-02-28T02:05:44.854Z,3.53
2024-02-28T02:08:12.461Z,3.83
2024-02-28T02:10:39.047Z,2.88
2024-02-28T02:13:06.205Z,2.53
2024-02-28T02:15:32.805Z,4.07
2024-02-28T02:17:59.525Z,2.92
2024-02-28T02:20:27.381Z,3.40
2024-02-28T02:22:54.445Z,3.92
2024-02-28T02:25:21.076Z,5.13
2024-02-28T02:27:50.131Z,4.20
2024-02-28T02:30:16.751Z,3.05
2024-02-28T02:32:43.407Z,4.43
2024-02-28T02:35:09.961Z,3.42
2024-02-28T02:37:36.517Z,4.13
2024-02-28T02:40:03.113Z,3.60
2024-02-28T02:42:29.705Z,4.18
2024-02-28T02:44:56.222Z,3.65
2024-02-28T02:47:23.088Z,3.97
2024-02-28T02:49:49.673Z,2.72
2024-02-28T02:52:16.169Z,2.75
2024-02-28T02:54:42.673Z,3.55
2024-02-28T02:57:09.210Z,3.13
2024-02-28T02:59:36.945Z,2.92
2024-02-28T03:02:05.059Z,2.72
2024-02-28T03:04:31.932Z,2.20
2024-02-28T03:06:59.159Z,2.38
2024-02-28T03:09:25.920Z,2.55
2024-02-28T03:11:52.562Z,3.05
2024-02-28T03:14:20.102Z,1.13
2024-02-28T03:16:49.058Z,3.58
2024-02-28T03:19:16.042Z,1.95
2024-02-28T03:21:42.594Z,2.20
2024-02-28T03:24:09.166Z,1.65
2024-02-28T03:26:35.659Z,3.03
2024-02-28T03:29:02.206Z,1.58
2024-02-28T03:31:28.796Z,1.80
2024-02-28T03:33:55.758Z,1.85
2024-02-28T03:36:22.510Z,2.53
2024-02-28T03:38:49.063Z,1.27
2024-02-28T03:41:15.785Z,1.83
2024-02-28T03:43:42.250Z,3.03
2024-02-28T03:46:09.266Z,1.33
2024-02-28T03:48:35.963Z,1.90
2024-02-28T03:51:02.481Z,2.33
2024-02-28T03:53:31.469Z,1.95
2024-02-28T03:55:58.159Z,1.92
2024-02-28T03:58:25.493Z,1.67
2024-02-28T04:00:52.195Z,2.40
2024-02-28T04:03:18.985Z,2.20
2024-02-28T04:05:45.514Z,2.08
2024-02-28T04:08:12.587Z,2.63
2024-02-28T04:10:39.156Z,1.58
2024-02-28T04:13:05.709Z,1.55
2024-02-28T04:15:32.400Z,2.28
2024-02-28T04:17:59.166Z,1.83
2024-02-28T04:20:25.759Z,3.38
2024-02-28T04:22:52.283Z,1.55
2024-02-28T04:25:18.964Z,2.50
2024-02-28T04:27:45.867Z,2.47
2024-02-28T04:30:12.444Z,2.72
2024-02-28T04:32:39.656Z,2.35
2024-02-28T04:35:07.759Z,1.33
2024-02-28T04:37:35.901Z,2.67
2024-02-28T04:40:02.633Z,1.85
2024-02-28T04:42:29.294Z,2.15
2024-02-28T04:44:55.823Z,1.65
2024-02-28T04:47:29.592Z,1.40
2024-02-28T04:50:00.290Z,1.38
2024-02-28T04:52:28.406Z,1.30
2024-02-28T04:54:55.183Z,2.72
2024-02-28T04:57:21.884Z,2.25
2024-02-28T04:59:48.467Z,3.13
2024-02-28T05:02:15.120Z,1.70
2024-02-28T05:04:41.744Z,2.53
2024-02-28T05:07:08.705Z,2.33
2024-02-28T05:09:35.397Z,2.42
2024-02-28T05:12:02.560Z,1.83
2024-02-28T05:14:29.350Z,2.70
2024-02-28T05:16:58.325Z,2.05
2024-02-28T05:19:24.959Z,3.25
2024-02-28T05:21:51.598Z,4.03
2024-02-28T05:24:18.238Z,3.72
2024-02-28T05:26:44.945Z,4.15
2024-02-28T05:29:11.468Z,3.45
2024-02-28T05:31:39.474Z,3.40
2024-02-28T05:34:06.356Z,4.65
2024-02-28T05:36:32.962Z,3.65
2024-02-28T05:39:01.064Z,2.72
2024-02-28T05:41:27.763Z,3.33
2024-02-28T05:43:54.597Z,3.15
2024-02-28T05:46:23.202Z,4.45
2024-02-28T05:48:49.780Z,4.18
2024-02-28T05:51:16.893Z,2.83
2024-02-28T05:53:43.938Z,3.30
2024-02-28T05:56:18.193Z,3.45
2024-02-28T05:58:45.730Z,3.03
2024-02-28T06:01:12.938Z,4.43
2024-02-28T06:03:39.813Z,5.03
2024-02-28T06:06:06.462Z,4.35
2024-02-28T06:08:38.658Z,5.28
2024-02-28T06:11:06.273Z,2.13
2024-02-28T06:13:32.836Z,4.22
2024-02-28T06:15:59.640Z,4.10
2024-02-28T06:18:28.307Z,4.03
2024-02-28T06:20:58.239Z,3.35
2024-02-28T06:23:28.909Z,4.63
2024-02-28T06:25:57.124Z,4.82
2024-02-28T06:28:23.787Z,3.95
2024-02-28T06:30:50.349Z,6.43
2024-02-28T06:33:17.143Z,5.72
2024-02-28T06:35:43.836Z,4.90
2024-02-28T06:38:10.644Z,3.92
2024-02-28T06:40:37.303Z,8.13
2024-02-28T06:43:04.047Z,5.43
2024-02-28T06:45:30.840Z,5.20
2024-02-28T06:47:57.523Z,6.80
2024-02-28T06:50:24.070Z,5.82
2024-02-28T06:52:50.607Z,3.80
2024-02-28T06:55:17.203Z,5.18
2024-02-28T06:57:43.976Z,5.65
2024-02-28T07:00:12.410Z,4.80
2024-02-28T07:02:39.068Z,5.78
2024-02-28T07:05:05.848Z,4.60
2024-02-28T07:07:32.485Z,7.63
2024-02-28T07:09:59.298Z,7.00
2024-02-28T07:12:26.187Z,5.65
2024-02-28T07:14:53.079Z,5.18
2024-02-28T07:17:20.157Z,4.63
2024-02-28T07:19:46.874Z,6.07
2024-02-28T07:22:13.412Z,4.75
2024-02-28T07:24:40.061Z,6.07
2024-02-28T07:27:06.587Z,3.95
2024-02-28T07:29:33.141Z,5.22
2024-02-28T07:31:59.752Z,3.95
2024-02-28T07:34:26.284Z,3.80
2024-02-28T07:36:52.914Z,5.75
2024-02-28T07:39:19.775Z,4.45
2024-02-28T07:41:46.392Z,6.68
2024-02-28T07:44:12.942Z,7.47
2024-02-28T07:46:41.847Z,7.03
2024-02-28T07:49:08.477Z,5.40
2024-02-28T07:51:35.229Z,6.40
2024-02-28T07:54:02.012Z,5.35
2024-02-28T07:56:28.572Z,6.72
2024-02-28T07:58:57.813Z,11.85
2024-02-28T08:01:25.273Z,7.70
2024-02-28T08:03:52.195Z,5.65
2024-02-28T08:06:18.989Z,6.40
2024-02-28T08:08:47.727Z,6.47
2024-02-28T08:11:15.509Z,6.53
2024-02-28T08:13:42.217Z,5.25
2024-02-28T08:16:10.499Z,5.90
2024-02-28T08:18:37.184Z,5.65
2024-02-28T08:21:04.432Z,6.07
2024-02-28T08:23:32.411Z,7.18
2024-02-28T08:25:59.608Z,5.38
2024-02-28T08:28:26.390Z,5.60
2024-02-28T08:30:53.253Z,4.35
2024-02-28T08:33:22.769Z,5.32
2024-02-28T08:35:52.847Z,6.88
2024-02-28T08:38:19.582Z,6.18
2024-02-28T08:40:46.872Z,6.28
2024-02-28T08:43:13.937Z,5.93
2024-02-28T08:45:40.696Z,4.88
2024-02-28T08:48:09.008Z,5.72
2024-02-28T08:50:36.373Z,4.03
2024-02-28T08:53:04.428Z,4.88
2024-02-28T08:55:32.439Z,5.03
2024-02-28T08:57:59.645Z,5.30
2024-02-28T09:00:26.896Z,6.90
2024-02-28T09:02:53.633Z,6.85
2024-02-28T09:05:20.182Z,6.35
2024-02-28T09:07:52.608Z,4.43
2024-02-28T09:12:53.003Z,3.92
2024-02-28T09:15:20.165Z,3.83
2024-02-28T09:17:46.792Z,4.18
2024-02-28T09:20:13.434Z,4.93
2024-02-28T09:22:40.709Z,3.97
2024-02-28T09:25:07.534Z,4.13
2024-02-28T09:27:34.426Z,5.63
2024-02-28T09:30:01.003Z,6.65
2024-02-28T09:32:28.624Z,5.05
2024-02-28T09:34:55.256Z,4.72
2024-02-28T09:37:23.682Z,5.72
2024-02-28T09:39:50.463Z,5.63
2024-02-28T09:42:17.333Z,5.82
2024-02-28T09:44:45.667Z,6.28
2024-02-28T09:47:12.711Z,4.90
2024-02-28T09:49:39.683Z,6.28
2024-02-28T09:52:06.644Z,7.43
2024-02-28T09:54:33.487Z,5.13
2024-02-28T09:57:00.973Z,5.13
2024-02-28T09:59:35.295Z,6.50
2024-02-28T10:02:11.476Z,5.13
2024-02-28T10:04:38.362Z,8.35
2024-02-28T10:07:13.880Z,6.90
2024-02-28T10:09:41.491Z,6.82
2024-02-28T10:12:08.600Z,4.47
2024-02-28T10:14:35.558Z,6.07
2024-02-28T10:17:02.184Z,5.13
2024-02-28T10:19:28.785Z,4.65
2024-02-28T10:21:55.623Z,4.65
2024-02-28T10:24:25.072Z,3.85
2024-02-28T10:26:57.687Z,5.53
2024-02-28T10:29:29.415Z,5.38
2024-02-28T10:31:56.974Z,3.47
2024-02-28T10:34:24.102Z,5.47
2024-02-28T10:36:51.127Z,4.32
2024-02-28T10:39:18.477Z,4.28
2024-02-28T10:41:47.826Z,7.07
2024-02-28T10:44:14.780Z,5.57
2024-02-28T10:46:41.800Z,6.65
2024-02-28T10:49:10.334Z,7.40
2024-02-28T10:51:40.245Z,6.93
2024-02-28T10:54:06.794Z,6.05
2024-02-28T10:56:33.534Z,7.72
2024-02-28T10:59:00.466Z,5.35
2024-02-28T11:01:27.545Z,7.30
2024-02-28T11:03:55.692Z,4.15
2024-02-28T11:06:23.726Z,4.95
2024-02-28T11:08:57.481Z,4.38
2024-02-28T11:11:24.622Z,4.03
2024-02-28T11:13:55.392Z,2.92
2024-02-28T11:16:32.339Z,3.63
2024-02-28T11:18:59.807Z,3.60
2024-02-28T11:21:27.368Z,4.80
2024-02-28T11:24:03.072Z,4.10
2024-02-28T11:26:30.296Z,4.57
2024-02-28T11:28:57.177Z,4.88
2024-02-28T11:31:24.123Z,3.28
2024-02-28T11:33:50.943Z,4.43
2024-02-28T11:36:17.893Z,3.70
2024-02-28T11:38:44.856Z,4.13
2024-02-28T11:41:12.304Z,4.25
2024-02-28T11:43:50.461Z,3.20
2024-02-28T11:46:19.924Z,3.17
2024-02-28T11:48:47.953Z,2.60
2024-02-28T11:51:15.701Z,4.32
2024-02-28T11:53:43.126Z,2.28
2024-02-28T11:56:10.143Z,3.90
2024-02-28T11:58:37.268Z,3.28
2024-02-28T12:01:04.726Z,4.28
2024-02-28T12:03:32.390Z,2.85
2024-02-28T12:05:59.980Z,3.47
2024-02-28T12:08:30.221Z,4.75
2024-02-28T12:11:06.966Z,3.78
2024-02-28T12:13:33.837Z,3.33
2024-02-28T12:16:04.056Z,3.13
2024-02-28T12:18:37.862Z,4.65
2024-02-28T12:21:05.182Z,3.83
2024-02-28T12:23:31.816Z,3.55
2024-02-28T12:25:58.519Z,2.15
2024-02-28T12:28:25.261Z,3.50
2024-02-28T12:30:56.928Z,3.00
2024-02-28T12:33:24.177Z,1.80
2024-02-28T12:35:51.153Z,2.75
2024-02-28T12:38:18.406Z,2.95
2024-02-28T12:40:45.240Z,1.98
2024-02-28T12:43:12.167Z,3.00
2024-02-28T12:45:39.185Z,2.80
2024-02-28T12:48:07.340Z,3.10
2024-02-28T12:50:34.958Z,2.67
2024-02-28T12:53:02.561Z,3.78
2024-02-28T12:55:29.120Z,3.50
2024-02-28T12:57:56.633Z,2.03
2024-02-28T13:00:23.448Z,2.20
2024-02-28T13:02:50.147Z,2.97
2024-02-28T13:05:17.028Z,2.60
2024-02-28T13:07:43.793Z,2.72
2024-02-28T13:10:10.983Z,1.30
2024-02-28T13:12:39.456Z,2.35
2024-02-28T13:15:06.734Z,3.03
2024-02-28T13:17:33.510Z,2.33
2024-02-28T13:20:00.050Z,2.88
2024-02-28T13:22:26.613Z,2.58
2024-02-28T13:24:53.506Z,2.80
2024-02-28T13:27:20.332Z,2.92
2024-02-28T13:29:47.090Z,2.22
2024-02-28T13:32:13.726Z,2.13
2024-02-28T13:34:40.811Z,3.33
2024-02-28T13:37:07.985Z,3.15
2024-02-28T13:39:35.878Z,3.10
2024-02-28T13:42:06.259Z,3.53
2024-02-28T13:44:33.042Z,2.58
2024-02-28T13:47:00.020Z,3.03
2024-02-28T13:49:26.802Z,3.30
2024-02-28T13:51:53.670Z,3.00
2024-02-28T13:54:20.408Z,3.97
2024-02-28T13:56:47.940Z,2.30
2024-02-28T13:59:15.000Z,2.72
2024-02-28T14:01:42.704Z,1.23
2024-02-28T14:04:09.656Z,3.55
2024-02-28T14:06:36.338Z,3.42
2024-02-28T14:09:03.944Z,2.92
2024-02-28T14:11:31.143Z,3.67
2024-02-28T14:13:58.154Z,2.45
2024-02-28T14:16:24.748Z,2.25
2024-02-28T14:18:52.166Z,2.65
2024-02-28T14:21:20.589Z,2.45
2024-02-28T14:23:47.788Z,1.95
2024-02-28T14:26:15.036Z,2.30
2024-02-28T14:28:42.435Z,3.67
2024-02-28T14:31:09.425Z,2.95
2024-02-28T14:33:37.900Z,4.53
2024-02-28T14:36:08.295Z,1.98
2024-02-28T14:38:35.286Z,2.80
2024-02-28T14:41:02.348Z,4.28
2024-02-28T14:43:31.145Z,3.95
2024-02-28T14:45:58.104Z,2.53
2024-02-28T14:48:24.833Z,3.42
2024-02-28T14:50:51.749Z,3.90
2024-02-28T14:53:20.928Z,3.10
2024-02-28T14:55:48.707Z,3.75
2024-02-28T14:58:15.981Z,3.15
2024-02-28T15:00:43.280Z,2.88
2024-02-28T15:03:10.002Z,2.35
2024-02-28T15:05:36.801Z,2.90
2024-02-28T15:08:03.709Z,2.97
2024-02-28T15:10:30.348Z,4.57
2024-02-28T15:12:57.357Z,3.65
2024-02-28T15:15:24.326Z,3.00
2024-02-28T15:17:51.591Z,3.10
2024-02-28T15:20:18.248Z,4.07
2024-02-28T15:22:46.748Z,4.20
2024-02-28T15:25:13.992Z,3.65
2024-02-28T15:27:41.587Z,12.55
2024-02-28T15:30:08.705Z,5.15
2024-02-28T15:32:35.544Z,3.20
2024-02-28T15:35:02.403Z,5.88
2024-02-28T15:37:29.106Z,5.35
2024-02-28T15:39:56.823Z,7.10
2024-02-28T15:42:23.853Z,5.03
2024-02-28T15:44:50.478Z,7.25
2024-02-28T15:47:17.379Z,5.30
2024-02-28T15:49:44.004Z,4.18
2024-02-28T15:52:11.289Z,3.65
2024-02-28T15:54:40.023Z,7.07
2024-02-28T15:57:07.266Z,31.90
2024-02-28T15:59:35.157Z,5.65
2024-02-28T16:02:02.454Z,5.05
2024-02-28T16:04:29.263Z,4.25
2024-02-28T16:06:56.028Z,3.83
2024-02-28T16:09:23.312Z,5.50
2024-02-28T16:11:50.365Z,7.28
2024-02-28T16:14:17.833Z,8.18
2024-02-28T16:16:48.146Z,6.55
2024-02-28T16:19:22.560Z,10.50
2024-02-28T16:21:54.292Z,7.63
2024-02-28T16:24:21.330Z,7.72
2024-02-28T16:26:48.939Z,8.30
2024-02-28T16:29:16.358Z,3.95
2024-02-28T16:31:50.464Z,5.18
2024-02-28T16:34:20.341Z,5.75
2024-02-28T16:36:47.991Z,6.40
2024-02-28T16:39:15.180Z,9.93
2024-02-28T16:41:42.770Z,10.23
2024-02-28T16:44:09.664Z,8.98
2024-02-28T16:46:36.874Z,9.93
2024-02-28T16:49:03.745Z,8.25
2024-02-28T16:51:30.446Z,8.65
2024-02-28T16:53:58.947Z,6.15
2024-02-28T16:56:28.842Z,4.78
2024-02-28T16:58:55.512Z,3.70
2024-02-28T17:01:25.495Z,2.67
2024-02-28T17:03:52.548Z,3.75
2024-02-28T17:06:19.150Z,3.47
2024-02-28T17:08:45.973Z,2.70
2024-02-28T17:11:13.697Z,3.25
2024-02-28T17:13:40.727Z,5.35
2024-02-28T17:16:07.672Z,5.18
2024-02-28T17:18:35.096Z,4.22
2024-02-28T17:21:04.989Z,5.63
2024-02-28T17:23:31.984Z,4.18
2024-02-28T17:26:00.039Z,4.50
2024-02-28T17:28:27.123Z,3.78
2024-02-28T17:30:53.912Z,4.40
2024-02-28T17:33:22.332Z,3.75
2024-02-28T17:35:49.363Z,4.45
2024-02-28T17:38:17.149Z,3.88
2024-02-28T17:40:44.279Z,2.65
2024-02-28T17:43:11.725Z,3.85
2024-02-28T17:45:39.680Z,2.70
2024-02-28T17:48:08.098Z,5.55
2024-02-28T17:50:35.010Z,5.20
2024-02-28T17:53:01.816Z,3.72
2024-02-28T17:55:29.420Z,5.22
2024-02-28T17:57:56.381Z,5.65
2024-02-28T18:00:26.789Z,5.20
2024-02-28T18:02:56.922Z,9.27
2024-02-28T18:05:25.349Z,9.63
2024-02-28T18:07:54.597Z,9.60
2024-02-28T18:10:21.908Z,8.82
2024-02-28T18:12:49.062Z,7.85
2024-02-28T18:15:17.221Z,10.93
2024-02-28T18:17:44.571Z,11.23
2024-02-28T18:20:11.541Z,9.27
2024-02-28T18:22:38.532Z,8.18
2024-02-28T18:25:07.274Z,9.50
2024-02-28T18:27:35.868Z,10.80
2024-02-28T18:30:02.851Z,8.68
2024-02-28T18:32:32.117Z,8.27
2024-02-28T18:35:01.752Z,8.75
2024-02-28T18:37:36.159Z,8.93
2024-02-28T18:40:13.871Z,8.02
2024-02-28T18:42:41.021Z,9.23
2024-02-28T18:45:08.911Z,11.85
2024-02-28T18:47:36.992Z,8.27
2024-02-28T18:50:05.879Z,10.13
2024-02-28T18:52:33.305Z,9.93
2024-02-28T18:55:00.702Z,9.13
2024-02-28T18:57:27.434Z,7.28
2024-02-28T18:59:55.806Z,10.18
2024-02-28T19:02:22.600Z,12.80
2024-02-28T19:04:49.266Z,10.80
2024-02-28T19:07:16.731Z,10.85
2024-02-28T19:09:43.527Z,10.55
2024-02-28T19:12:11.348Z,8.40
2024-02-28T19:14:38.641Z,11.02
2024-02-28T19:17:05.585Z,10.70
2024-02-28T19:19:35.100Z,10.88
2024-02-28T19:22:03.044Z,9.82
2024-02-28T19:24:30.596Z,10.05
2024-02-28T19:26:57.902Z,10.65
2024-02-28T19:29:24.818Z,11.25
2024-02-28T19:31:52.375Z,9.43
2024-02-28T19:34:19.906Z,10.15
2024-02-28T19:36:46.755Z,9.15
2024-02-28T19:39:14.178Z,3.75
2024-02-28T19:41:41.483Z,10.30
2024-02-28T19:44:08.511Z,13.00
2024-02-28T19:46:35.360Z,12.68
2024-02-28T19:49:04.892Z,10.70
2024-02-28T19:51:31.773Z,11.73
2024-02-28T19:53:59.461Z,9.93
2024-02-28T19:56:27.268Z,8.45
2024-02-28T19:58:55.111Z,10.98
2024-02-28T20:01:23.249Z,10.05
2024-02-28T20:03:50.484Z,10.77
2024-02-28T20:06:17.588Z,10.90
2024-02-28T20:08:44.859Z,10.73
2024-02-28T20:11:12.105Z,10.48
2024-02-28T20:13:44.674Z,12.52
2024-02-28T20:18:38.655Z,8.45
2024-02-28T20:21:14.557Z,5.70
2024-02-28T20:23:50.004Z,7.88
2024-02-28T20:26:18.156Z,9.85
2024-02-28T20:28:45.065Z,9.05
2024-02-28T20:31:12.738Z,12.80
2024-02-28T20:33:39.681Z,12.13
2024-02-28T20:36:11.052Z,11.05
2024-02-28T20:38:39.828Z,11.35
2024-02-28T20:41:07.816Z,13.88
2024-02-28T20:43:35.265Z,13.32
2024-02-28T20:46:02.483Z,8.95
2024-02-28T20:48:29.819Z,15.73
2024-02-28T20:50:57.161Z,13.30
2024-02-28T20:53:24.619Z,12.88
2024-02-28T20:55:52.698Z,14.48
2024-02-28T20:58:20.124Z,12.63
2024-02-28T21:00:47.302Z,12.75
2024-02-28T21:03:14.648Z,13.32
2024-02-28T21:05:41.852Z,11.45
2024-02-28T21:08:12.565Z,13.70
2024-02-28T21:10:40.106Z,13.00
2024-02-28T21:13:07.173Z,10.82
2024-02-28T21:15:34.750Z,13.18
2024-02-28T21:18:02.753Z,16.27
2024-02-28T21:20:31.114Z,15.05
2024-02-28T21:22:58.799Z,14.38
2024-02-28T21:25:26.802Z,17.50
2024-02-28T21:27:55.010Z,14.15
2024-02-28T21:30:22.514Z,11.93
2024-02-28T21:32:50.598Z,13.75
2024-02-28T21:35:18.317Z,13.73
2024-02-28T21:37:49.126Z,10.05
2024-02-28T21:40:16.763Z,10.05
2024-02-28T21:42:45.367Z,14.38
2024-02-28T21:45:12.379Z,19.27
2024-02-28T21:47:39.222Z,15.80
2024-02-28T21:50:07.184Z,14.38
2024-02-28T21:52:34.280Z,17.63
2024-02-28T21:55:01.689Z,16.13
2024-02-28T21:57:28.472Z,11.55
2024-02-28T21:59:55.432Z,16.95
2024-02-28T22:02:22.405Z,12.88
2024-02-28T22:04:49.450Z,22.45
2024-02-28T22:07:16.175Z,17.90
2024-02-28T22:09:43.387Z,13.60
2024-02-28T22:12:10.732Z,13.80
2024-02-28T22:14:37.924Z,14.23
2024-02-28T22:17:05.701Z,10.68
2024-02-28T22:19:33.290Z,10.35
2024-02-28T22:22:02.869Z,18.80
2024-02-28T22:24:29.849Z,11.30
2024-02-28T22:26:56.534Z,13.98
2024-02-28T22:29:23.892Z,11.32
2024-02-28T22:31:50.909Z,14.85
2024-02-28T22:34:18.926Z,11.15
2024-02-28T22:36:46.269Z,14.20
2024-02-28T22:39:13.072Z,15.02
2024-02-28T22:41:42.393Z,12.35
2024-02-28T22:44:09.534Z,12.73
2024-02-28T22:46:36.863Z,15.52
2024-02-28T22:49:05.175Z,12.82
2024-02-28T22:51:32.849Z,11.05
2024-02-28T22:54:00.112Z,14.90
2024-02-28T22:56:26.940Z,13.55
2024-02-28T22:58:53.663Z,14.82
2024-02-28T23:01:20.785Z,12.30
2024-02-28T23:03:48.298Z,14.23
2024-02-28T23:06:14.965Z,12.85
2024-02-28T23:08:41.763Z,16.85
2024-02-28T23:11:08.640Z,12.60
2024-02-28T23:13:36.358Z,14.02
2024-02-28T23:16:03.224Z,15.13
2024-02-28T23:18:29.946Z,15.55
2024-02-28T23:20:56.587Z,10.38
2024-02-28T23:23:23.407Z,9.43
2024-02-28T23:25:50.120Z,11.43
2024-02-28T23:28:16.741Z,13.15
2024-02-28T23:30:43.346Z,12.65
2024-02-28T23:33:10.590Z,12.15
2024-02-28T23:35:37.114Z,12.80
2024-02-28T23:38:04.430Z,13.65
2024-02-28T23:40:31.953Z,13.85
2024-02-28T23:42:58.553Z,12.68
2024-02-28T23:45:25.151Z,10.50
2024-02-28T23:47:51.781Z,12.65
2024-02-28T23:50:20.637Z,12.25
2024-02-28T23:52:47.514Z,13.13
2024-02-28T23:55:14.974Z,14.43
2024-02-28T23:57:42.275Z,12.70
